Latest Weather Observations for Kempsey Airport

IDN60801

Issued at 8:32 am EDT Wednesday 1 April 2015 (issued every 30 minutes, with the page automatically refreshed every 10 minutes)

About weather observations | Map of weather stations | Latest weather observations for NSW | Other Formats
Station Details ID: 059007 Name: KEMPSEY AIRPORT AWS Lat: -31.07 Lon: 152.77 Height: 13.0 m
Data from the previous 72 hours. | See also: Recent months for locations in New South Wales
Date/Time
EDT
Temp
°C
App
Temp
°C
Dew
Point
Rel
Hum
%
Delta-T
°C
Wind Press
QNH
hPa
Press
MSL
hPa
Rain
since 9 am
mm
Dir
 
Spd
km/h
Gust
km/h
Spd
kts
Gust
kts
01/08:30am 17.8 19.7 16.8 94 0.6 W 2 7 1 4 1025.1 1025.0 35.4
01/08:00am 17.5 18.4 16.5 94 0.6 WNW 7 9 4 5 1024.8 1024.7 35.4
01/07:30am 17.3 18.1 16.3 94 0.6 W 7 11 4 6 1024.7 1024.6 35.2
01/07:00am 17.2 16.8 16.2 94 0.6 WNW 13 15 7 8 1024.5 1024.4 34.8
01/06:30am 17.3 17.7 16.3 94 0.6 WNW 9 11 5 6 1024.5 1024.4 31.6
01/06:00am 17.3 19.0 16.3 94 0.6 NW 2 7 1 4 1024.3 1024.2 26.0
01/05:30am 17.3 19.4 16.3 94 0.6 CALM 0 0 0 0 1023.9 1023.8 22.4
01/05:00am 17.2 18.5 16.2 94 0.6 SSW 4 9 2 5 1023.5 1023.4 21.4
01/04:30am 17.2 17.6 16.2 94 0.6 W 9 11 5 6 1023.2 1023.1 21.4
01/04:00am 17.4 18.4 16.4 94 0.6 WSW 6 13 3 7 1023.1 1023.0 21.4
01/03:30am 17.4 19.6 16.4 94 0.6 CALM 0 0 0 0 1023.4 1023.3 21.4
01/03:00am 17.3 19.4 16.3 94 0.6 CALM 0 0 0 0 1023.5 1023.4 21.4
01/02:30am 17.4 19.6 16.4 94 0.6 CALM 0 0 0 0 1023.7 1023.6 21.4
01/02:00am 17.4 18.4 16.4 94 0.6 W 6 9 3 5 1023.9 1023.8 21.4
01/01:30am 17.6 18.5 16.6 94 0.6 W 7 11 4 6 1024.1 1024.0 21.4
01/01:00am 17.6 18.5 16.6 94 0.6 W 7 11 4 6 1024.1 1024.0 21.4
01/12:30am 17.4 18.4 16.4 94 0.6 WSW 6 7 3 4 1024.3 1024.2 21.4
01/12:00am 16.8 18.7 15.7 93 0.6 CALM 0 4 0 2 1024.5 1024.4 21.2
 
Date/Time
EDT
Temp
°C
App
Temp
°C
Dew
Point
Rel
Hum
%
Delta-T
°C
Wind Press
QNH
hPa
Press
MSL
hPa
Rain
since 9 am
mm
Dir
 
Spd
km/h
Gust
km/h
Spd
kts
Gust
kts
31/11:30pm 17.4 19.5 16.3 93 0.7 CALM 0 0 0 0 1024.5 1024.4 21.2
31/11:00pm 17.8 19.3 16.7 93 0.7 NW 4 9 2 5 1024.5 1024.4 21.2
31/10:30pm 18.1 19.7 16.9 93 0.7 W 4 9 2 5 1024.7 1024.6 21.2
31/10:00pm 18.3 19.4 17.1 93 0.7 W 7 9 4 5 1024.6 1024.5 21.0
31/09:30pm 18.7 20.9 17.5 93 0.7 WSW 2 6 1 3 1024.9 1024.8 21.0
31/09:00pm 18.8 20.7 17.6 93 0.7 NW 4 11 2 6 1025.0 1024.9 20.0
31/08:30pm 18.8 21.4 17.6 93 0.7 CALM 0 0 0 0 1024.7 1024.6 16.8
31/08:00pm 18.8 20.3 17.6 93 0.7 W 6 7 3 4 1024.2 1024.1 16.4
31/07:30pm 19.0 20.4 17.8 93 0.7 W 7 9 4 5 1024.0 1023.9 16.2
31/07:00pm 18.9 20.3 17.7 93 0.7 W 7 9 4 5 1023.9 1023.8 15.4
31/06:30pm 18.9 21.5 17.4 91 0.9 CALM 0 0 0 0 1023.6 1023.5 15.0
31/06:00pm 18.7 18.6 17.0 90 1.0 SE 13 24 7 13 1023.4 1023.3 14.0
31/05:30pm 20.9 22.6 18.5 86 1.5 S 7 9 4 5 1023.1 1023.0 3.2
31/05:00pm 21.1 23.1 18.7 86 1.5 SSE 6 9 3 5 1022.9 1022.8 3.2
31/04:30pm 20.8 22.6 18.7 88 1.3 S 7 11 4 6 1022.6 1022.5 3.2
31/04:00pm 20.3 22.8 18.1 87 1.4 SSE 2 7 1 4 1022.8 1022.7 2.6
31/03:30pm 20.5 21.6 18.1 86 1.5 SSE 9 13 5 7 1023.1 1023.0 0.8
31/03:00pm 22.2 22.1 17.8 76 2.7 ESE 15 20 8 11 1022.9 1022.8 0.0
31/02:30pm 23.4 24.3 17.6 70 3.6 SE 9 11 5 6 1022.8 1022.7 0.0
31/02:00pm 23.1 24.0 17.6 71 3.4 SSE 9 15 5 8 1023.1 1023.0 0.0
31/01:30pm 23.0 24.2 18.3 75 2.9 SE 9 13 5 7 1023.4 1023.3 0.0
31/01:00pm 22.6 24.0 18.6 78 2.5 SSE 9 15 5 8 1023.9 1023.8 0.0
31/12:30pm 21.9 23.0 18.1 79 2.4 SE 9 15 5 8 1024.4 1024.3 0.0
31/12:00pm 21.7 22.8 18.1 80 2.2 SSE 9 13 5 7 1024.6 1024.5 0.0
31/11:30am 21.5 22.9 17.9 80 2.2 SW 7 11 4 6 1024.9 1024.8 0.0
31/11:00am 21.6 24.6 18.4 82 2.0 CALM 0 0 0 0 1025.3 1025.2 0.0
31/10:30am 21.1 23.7 18.3 84 1.7 S 2 9 1 5 1025.3 1025.2 0.0
31/10:00am 20.4 23.3 18.2 87 1.4 CALM 0 0 0 0 1025.2 1025.1 0.0
31/09:30am 20.0 21.7 18.0 88 1.2 SW 6 9 3 5 1025.0 1024.9 0.0
31/09:00am 19.4 21.0 17.9 91 0.9 SW 6 9 3 5 1024.7 1024.6 8.2
31/08:30am 19.0 21.7 17.8 93 0.7 CALM 0 0 0 0 1024.4 1024.3 8.2
31/08:00am 18.4 20.1 17.2 93 0.7 W 4 7 2 4 1024.1 1024.0 8.2
31/07:30am 18.1 19.3 16.9 93 0.7 SW 6 9 3 5 1023.6 1023.5 8.2
31/07:00am 18.2 19.3 17.0 93 0.7 SW 7 9 4 5 1023.4 1023.3 8.2
31/06:30am 18.5 21.0 17.3 93 0.7 CALM 0 0 0 0 1023.3 1023.2 8.0
31/06:00am 18.4 20.5 17.2 93 0.7 WSW 2 6 1 3 1023.1 1023.0 8.0
31/05:30am 18.3 19.6 17.1 93 0.7 W 6 7 3 4 1023.0 1022.9 8.0
31/05:00am 18.2 20.6 17.0 93 0.7 CALM 0 0 0 0 1022.7 1022.6 8.0
31/04:30am 18.2 20.6 17.0 93 0.7 CALM 0 6 0 3 1022.6 1022.5 8.0
31/04:00am 18.3 20.7 17.1 93 0.7 CALM 0 2 0 1 1022.9 1022.8 8.0
31/03:30am 18.3 20.7 17.1 93 0.7 CALM 0 0 0 0 1023.0 1022.9 8.0
31/03:00am 18.2 20.6 17.0 93 0.7 CALM 0 0 0 0 1023.1 1023.0 7.8
31/02:30am 18.3 20.7 17.1 93 0.7 CALM 0 0 0 0 1023.3 1023.2 7.6
31/02:00am 18.3 19.6 17.1 93 0.7 N 6 7 3 4 1023.4 1023.3 7.4
31/01:30am 18.4 19.5 17.2 93 0.7 WNW 7 9 4 5 1023.6 1023.5 7.4
31/01:00am 18.5 19.6 17.2 92 0.8 NW 7 9 4 5 1023.7 1023.6 7.4
31/12:30am 18.6 20.0 17.3 92 0.8 WSW 6 7 3 4 1023.7 1023.6 7.4
31/12:00am 18.7 20.1 17.4 92 0.8 NW 6 7 3 4 1024.1 1024.0 7.4
 
Date/Time
EDT
Temp
°C
App
Temp
°C
Dew
Point
Rel
Hum
%
Delta-T
°C
Wind Press
QNH
hPa
Press
MSL
hPa
Rain
since 9 am
mm
Dir
 
Spd
km/h
Gust
km/h
Spd
kts
Gust
kts
30/11:30pm 18.8 21.4 17.5 92 0.8 CALM 0 0 0 0 1024.1 1024.0 7.4
30/11:00pm 18.9 20.4 17.6 92 0.8 W 6 7 3 4 1024.3 1024.2 7.4
30/10:30pm 18.8 21.3 17.3 91 0.9 CALM 0 0 0 0 1024.2 1024.1 7.4
30/10:00pm 18.8 19.7 17.5 92 0.8 W 9 11 5 6 1024.3 1024.2 7.4
30/09:30pm 18.7 19.9 17.4 92 0.8 S 7 9 4 5 1024.2 1024.1 7.4
30/09:00pm 18.7 21.3 17.4 92 0.8 CALM 0 6 0 3 1024.1 1024.0 7.2
30/08:30pm 18.7 20.1 17.4 92 0.8 WSW 6 7 3 4 1023.8 1023.7 7.2
30/08:00pm 18.7 19.5 17.4 92 0.8 WSW 9 13 5 7 1023.7 1023.6 7.2
30/07:30pm 18.7 19.8 17.2 91 0.9 WSW 7 11 4 6 1023.2 1023.1 7.2
30/07:00pm 19.0 20.7 17.1 89 1.1 NE 4 9 2 5 1023.0 1022.9 7.2
30/06:30pm 18.9 19.3 17.2 90 1.0 ESE 11 15 6 8 1022.8 1022.7 7.2
30/06:00pm 18.7 18.9 16.8 89 1.1 WSW 11 13 6 7 1022.2 1022.1 7.0
30/05:30pm 18.7 18.2 16.8 89 1.1 W 15 20 8 11 1022.2 1022.1 6.0
30/05:00pm 20.9 21.3 18.1 84 1.7 NW 13 24 7 13 1021.8 1021.7 1.6
30/04:30pm 22.7 24.9 19.3 81 2.2 S 6 9 3 5 1021.5 1021.4 0.2
30/04:00pm 23.3 24.9 18.2 73 3.2 ESE 7 9 4 5 1021.0 1020.9 0.0
30/03:30pm 23.8 23.6 17.5 68 3.9 SE 15 19 8 10 1021.0 1020.9 0.0
30/03:00pm 24.3 23.8 17.8 67 4.1 SE 17 20 9 11 1020.9 1020.8 0.0
30/02:30pm 25.3 26.2 18.5 66 4.3 ESE 11 15 6 8 1021.1 1021.0 0.0
30/02:00pm 25.2 25.7 18.4 66 4.3 SE 13 17 7 9 1021.5 1021.4 0.0
30/01:30pm 25.2 25.6 19.1 69 3.9 SE 15 20 8 11 1021.7 1021.6 0.0
30/01:00pm 24.9 26.1 19.0 69 3.8 SE 11 17 6 9 1022.1 1022.0 0.0
30/12:30pm 24.8 26.0 18.3 67 4.1 SSE 9 15 5 8 1022.3 1022.2 0.0
30/12:00pm 24.3 26.2 18.5 70 3.7 SSE 6 11 3 6 1022.6 1022.5 0.0
30/11:30am 23.7 26.0 18.6 73 3.2 SSW 4 7 2 4 1023.1 1023.0 0.0
30/11:00am 22.2 25.3 18.6 80 2.3 CALM 0 6 0 3 1023.3 1023.2 0.0
30/10:30am 21.5 23.2 18.5 83 1.9 WNW 7 11 4 6 1023.3 1023.2 0.0
30/10:00am 21.3 22.4 18.1 82 2.0 WNW 9 11 5 6 1023.2 1023.1 0.0
30/09:30am 20.7 22.9 18.3 86 1.5 W 4 9 2 5 1023.2 1023.1 0.0
30/09:00am 19.1 21.1 17.9 93 0.7 W 4 7 2 4 1023.1 1023.0 0.0
30/08:30am 18.0 19.6 17.0 94 0.6 WSW 4 7 2 4 1022.8 1022.7 0.0
30/08:00am 17.7 19.2 16.7 94 0.6 W 4 7 2 4 1022.6 1022.5 0.0
30/07:30am 17.3 19.0 16.3 94 0.6 W 2 9 1 5 1022.2 1022.1 0.0
30/07:00am 17.0 19.0 16.0 94 0.6 CALM 0 0 0 0 1022.1 1022.0 0.0
30/06:30am 17.2 19.3 16.2 94 0.6 CALM 0 0 0 0 1021.7 1021.6 0.0
30/06:00am 17.1 19.1 16.1 94 0.6 CALM 0 6 0 3 1021.3 1021.2 0.0
30/05:30am 17.1 18.0 16.1 94 0.6 SW 6 7 3 4 1021.3 1021.2 0.0
30/05:00am 17.0 17.9 16.0 94 0.6 WSW 6 9 3 5 1021.3 1021.2 0.0
30/04:30am 16.7 18.2 15.7 94 0.6 WNW 2 9 1 5 1021.4 1021.3 0.0
30/04:00am 16.2 17.9 15.1 93 0.6 CALM 0 0 0 0 1021.3 1021.2 0.0
30/03:30am 16.6 17.3 15.5 93 0.6 NNW 6 7 3 4 1021.3 1021.2 0.0
30/03:00am 17.0 19.0 15.9 93 0.6 CALM 0 0 0 0 1021.4 1021.3 0.0
30/02:30am 16.7 18.5 15.4 92 0.8 CALM 0 0 0 0 1021.7 1021.6 0.0
30/02:00am 17.2 19.2 16.1 93 0.6 CALM 0 0 0 0 1022.0 1021.9 0.0
30/01:30am 17.3 18.0 16.0 92 0.8 W 7 9 4 5 1022.2 1022.1 0.0
30/01:00am 17.7 18.7 16.4 92 0.8 NW 6 6 3 3 1022.4 1022.3 0.0
30/12:30am 17.7 19.8 16.2 91 0.9 CALM 0 0 0 0 1022.6 1022.5 0.0
30/12:00am 18.3 20.7 17.0 92 0.8 CALM 0 0 0 0 1022.3 1022.2 0.0
 
Date/Time
EDT
Temp
°C
App
Temp
°C
Dew
Point
Rel
Hum
%
Delta-T
°C
Wind Press
QNH
hPa
Press
MSL
hPa
Rain
since 9 am
mm
Dir
 
Spd
km/h
Gust
km/h
Spd
kts
Gust
kts
29/11:30pm 18.0 20.1 16.2 89 1.1 CALM 0 0 0 0 1022.4 1022.3 0.0
29/11:00pm 18.8 20.4 16.9 89 1.1 W 4 6 2 3 1022.6 1022.5 0.0
29/10:30pm 19.3 20.7 17.4 89 1.2 W 6 7 3 4 1022.8 1022.7 0.0
29/10:00pm 19.4 22.0 17.5 89 1.2 CALM 0 0 0 0 1023.0 1022.9 0.0
29/09:30pm 19.4 22.0 17.4 88 1.2 CALM 0 0 0 0 1022.9 1022.8 0.0
29/09:00pm 19.8 21.2 17.4 86 1.5 WSW 6 9 3 5 1022.8 1022.7 0.0
29/08:30pm 19.7 21.9 17.5 87 1.3 NW 2 7 1 4 1022.5 1022.4 0.0
29/08:00pm 20.1 21.1 17.7 86 1.5 W 9 9 5 5 1022.3 1022.2 0.0
29/07:30pm 20.8 23.2 17.0 79 2.3 CALM 0 0 0 0 1021.8 1021.7 0.0
29/07:00pm 22.6 24.0 17.9 75 2.9 ENE 7 9 4 5 1021.3 1021.2 0.0
29/06:30pm 23.2 24.3 17.9 72 3.3 ENE 9 11 5 6 1021.3 1021.2 0.0
29/06:00pm 24.4 25.3 17.6 66 4.2 E 9 13 5 7 1021.0 1020.9 0.0
29/05:30pm 24.1 24.4 17.8 68 3.9 NE 13 17 7 9 1020.5 1020.4 0.0
29/05:00pm 24.7 23.6 17.7 65 4.4 E 20 28 11 15 1020.0 1019.9 0.0
29/04:30pm 25.2 24.7 17.9 64 4.6 E 17 24 9 13 1020.0 1019.9 0.0
29/04:00pm 25.5 24.4 17.7 62 4.9 E 20 28 11 15 1020.1 1020.0 0.0
29/03:30pm 26.2 25.2 17.6 59 5.4 E 19 24 10 13 1020.2 1020.1 0.0
29/03:00pm 26.0 24.8 17.1 58 5.5 ENE 19 26 10 14 1020.5 1020.4 0.0
29/02:30pm 26.7 26.2 16.0 52 6.6 E 13 20 7 11 1020.7 1020.6 0.0
29/02:00pm 26.6 26.1 15.9 51 6.5 ENE 13 20 7 11 1021.1 1021.0 0.0
29/01:30pm 26.9 27.8 16.5 53 6.4 ENE 7 13 4 7 1021.6 1021.5 0.0
29/01:00pm 27.1 27.4 16.1 51 6.7 NNE 9 15 5 8 1022.4 1022.3 0.0
29/12:30pm 26.8 27.1 16.1 52 6.6 N 9 15 5 8 1022.6 1022.5 0.0
29/12:00pm 25.7 26.0 16.0 55 5.9 NNE 9 19 5 10 1022.7 1022.6 0.0
29/11:30am 24.9 25.5 15.8 57 5.5 ESE 7 11 4 6 1022.9 1022.8 0.0
29/11:00am 24.4 24.5 14.5 54 5.9 WSW 7 11 4 6 1023.6 1023.5 0.0
29/10:30am 23.5 23.3 14.8 58 5.2 WNW 9 13 5 7 1024.0 1023.9 0.0
29/10:00am 22.0 22.3 14.9 64 4.2 WNW 7 13 4 7 1024.1 1024.0 0.0
29/09:30am 19.8 20.2 15.4 76 2.6 W 7 11 4 6 1024.1 1024.0 0.0
29/09:00am 18.8 19.2 15.3 80 2.0 W 7 9 4 5 1023.8 1023.7 0.0

Other Formats:

Comma delimited format used in spreadsheet applications
http://www.bom.gov.au/fwo/IDN60801/IDN60801.94785.axf

JavaScript Object Notation format (JSON) in row-major order
http://www.bom.gov.au/fwo/IDN60801/IDN60801.94785.json